Caplan, Canada
Current Conditions -  °F | °C
As of 4:00 AM on Wednesday 26 Nov 2014 (Local Time) from CZBF Reporting Station
Broken Clouds Broken Clouds  
Wind Chill: 33°   Ceiling: 12000
Heat Index: 41°   Visibility: 15mi
Dew Point: 25°   Wind: 16mph
Humidity: 53%   Direction: 270°W
Pressure: 29.94"   Gusts: 24mph
Location:  48.1°N, 65.68°W
Report Text: CZBF 260900Z 27014G21KT 15SM FEW040 BKN120 05/M04 A2994 RMK SC1AC6 SC TR SLP139
Loading
Personal Weather Stations






























Interactive Weather Map New forecast layout! Learn more

10-Day Weather Forecast

Advertisements
Track Severe Weather on mobile